sensor_id;sensor_type;location;lat;lon;timestamp;temperature;humidity
24224;DHT22;12359;49.716;9.212;2022-07-06T00:00:43;17.80;99.60
24224;DHT22;12359;49.716;9.212;2022-07-06T00:03:09;17.70;99.90
24224;DHT22;12359;49.716;9.212;2022-07-06T00:05:34;17.60;99.90
24224;DHT22;12359;49.716;9.212;2022-07-06T00:08:00;17.60;99.90
24224;DHT22;12359;49.716;9.212;2022-07-06T00:10:26;17.50;99.90
24224;DHT22;12359;49.716;9.212;2022-07-06T00:12:51;17.40;99.90
24224;DHT22;12359;49.716;9.212;2022-07-06T00:15:17;17.40;99.90
24224;DHT22;12359;49.716;9.212;2022-07-06T00:17:43;17.40;99.90
24224;DHT22;12359;49.716;9.212;2022-07-06T00:20:09;17.40;99.90
24224;DHT22;12359;49.716;9.212;2022-07-06T00:22:34;17.40;99.90
24224;DHT22;12359;49.716;9.212;2022-07-06T00:25:00;17.40;99.90
24224;DHT22;12359;49.716;9.212;2022-07-06T00:27:26;17.40;99.90
24224;DHT22;12359;49.716;9.212;2022-07-06T00:29:51;17.40;99.90
24224;DHT22;12359;49.716;9.212;2022-07-06T00:32:17;17.40;99.90
24224;DHT22;12359;49.716;9.212;2022-07-06T00:34:43;17.40;99.90
24224;DHT22;12359;49.716;9.212;2022-07-06T00:37:08;17.30;99.90
24224;DHT22;12359;49.716;9.212;2022-07-06T00:39:34;17.30;99.90
24224;DHT22;12359;49.716;9.212;2022-07-06T00:42:00;17.30;99.90
24224;DHT22;12359;49.716;9.212;2022-07-06T00:44:26;17.20;99.90
24224;DHT22;12359;49.716;9.212;2022-07-06T00:46:52;17.20;99.90
24224;DHT22;12359;49.716;9.212;2022-07-06T00:49:18;17.20;99.90
24224;DHT22;12359;49.716;9.212;2022-07-06T00:52:02;17.20;99.90
24224;DHT22;12359;49.716;9.212;2022-07-06T00:54:30;17.20;99.90
24224;DHT22;12359;49.716;9.212;2022-07-06T00:56:57;17.20;99.90
24224;DHT22;12359;49.716;9.212;2022-07-06T00:59:23;17.10;99.90
24224;DHT22;12359;49.716;9.212;2022-07-06T01:01:50;17.10;99.90
24224;DHT22;12359;49.716;9.212;2022-07-06T01:04:15;17.10;99.90
24224;DHT22;12359;49.716;9.212;2022-07-06T01:06:41;17.00;99.90
24224;DHT22;12359;49.716;9.212;2022-07-06T01:09:07;17.00;99.90
24224;DHT22;12359;49.716;9.212;2022-07-06T01:11:33;17.00;99.90
24224;DHT22;12359;49.716;9.212;2022-07-06T01:14:00;16.90;99.90
24224;DHT22;12359;49.716;9.212;2022-07-06T01:16:26;16.90;99.90
24224;DHT22;12359;49.716;9.212;2022-07-06T01:18:51;16.80;99.90
24224;DHT22;12359;49.716;9.212;2022-07-06T01:21:17;16.70;99.90
24224;DHT22;12359;49.716;9.212;2022-07-06T01:23:46;16.60;99.90
24224;DHT22;12359;49.716;9.212;2022-07-06T01:26:13;16.60;99.90
24224;DHT22;12359;49.716;9.212;2022-07-06T01:28:40;16.40;99.90
24224;DHT22;12359;49.716;9.212;2022-07-06T01:31:05;16.50;99.90
24224;DHT22;12359;49.716;9.212;2022-07-06T01:33:38;16.40;99.90
24224;DHT22;12359;49.716;9.212;2022-07-06T01:36:04;16.40;99.90
24224;DHT22;12359;49.716;9.212;2022-07-06T01:38:30;16.30;99.90
24224;DHT22;12359;49.716;9.212;2022-07-06T01:40:55;16.30;99.90
24224;DHT22;12359;49.716;9.212;2022-07-06T01:43:21;16.30;99.90
24224;DHT22;12359;49.716;9.212;2022-07-06T01:45:47;16.30;99.90
24224;DHT22;12359;49.716;9.212;2022-07-06T01:48:12;16.20;99.90
24224;DHT22;12359;49.716;9.212;2022-07-06T01:50:38;16.20;99.90
24224;DHT22;12359;49.716;9.212;2022-07-06T01:53:04;16.20;99.90
24224;DHT22;12359;49.716;9.212;2022-07-06T01:55:29;16.30;99.90
24224;DHT22;12359;49.716;9.212;2022-07-06T01:57:55;16.20;99.90
24224;DHT22;12359;49.716;9.212;2022-07-06T02:00:21;16.20;99.90
24224;DHT22;12359;49.716;9.212;2022-07-06T02:02:46;16.20;99.90
24224;DHT22;12359;49.716;9.212;2022-07-06T02:05:12;16.10;99.90
24224;DHT22;12359;49.716;9.212;2022-07-06T02:07:38;16.10;99.90
24224;DHT22;12359;49.716;9.212;2022-07-06T02:10:04;16.00;99.90
24224;DHT22;12359;49.716;9.212;2022-07-06T02:12:29;16.10;99.90
24224;DHT22;12359;49.716;9.212;2022-07-06T02:14:55;16.00;99.90
24224;DHT22;12359;49.716;9.212;2022-07-06T02:17:21;16.00;99.90
24224;DHT22;12359;49.716;9.212;2022-07-06T02:19:46;16.00;99.90
24224;DHT22;12359;49.716;9.212;2022-07-06T02:22:12;16.00;99.90
24224;DHT22;12359;49.716;9.212;2022-07-06T02:24:37;15.90;99.90
24224;DHT22;12359;49.716;9.212;2022-07-06T02:27:03;15.90;99.90
24224;DHT22;12359;49.716;9.212;2022-07-06T02:29:29;15.90;99.90
24224;DHT22;12359;49.716;9.212;2022-07-06T02:31:54;15.90;99.90
24224;DHT22;12359;49.716;9.212;2022-07-06T02:34:20;15.80;99.90
24224;DHT22;12359;49.716;9.212;2022-07-06T02:36:46;15.70;99.90
24224;DHT22;12359;49.716;9.212;2022-07-06T02:39:11;15.70;99.90
24224;DHT22;12359;49.716;9.212;2022-07-06T02:41:37;15.70;99.90
24224;DHT22;12359;49.716;9.212;2022-07-06T02:44:03;15.60;99.90
24224;DHT22;12359;49.716;9.212;2022-07-06T02:46:29;15.60;99.90
24224;DHT22;12359;49.716;9.212;2022-07-06T02:48:54;15.60;99.90
24224;DHT22;12359;49.716;9.212;2022-07-06T02:51:20;15.50;99.90
24224;DHT22;12359;49.716;9.212;2022-07-06T02:53:45;15.50;99.90
24224;DHT22;12359;49.716;9.212;2022-07-06T02:56:11;15.50;99.90
24224;DHT22;12359;49.716;9.212;2022-07-06T02:58:37;15.50;99.90
24224;DHT22;12359;49.716;9.212;2022-07-06T03:01:02;15.50;99.90
24224;DHT22;12359;49.716;9.212;2022-07-06T03:03:28;15.50;99.90
24224;DHT22;12359;49.716;9.212;2022-07-06T03:05:54;15.40;99.90
24224;DHT22;12359;49.716;9.212;2022-07-06T03:08:20;15.40;99.90
24224;DHT22;12359;49.716;9.212;2022-07-06T03:10:45;15.40;99.90
24224;DHT22;12359;49.716;9.212;2022-07-06T03:13:11;15.40;99.90
24224;DHT22;12359;49.716;9.212;2022-07-06T03:15:36;15.40;99.90
24224;DHT22;12359;49.716;9.212;2022-07-06T03:18:02;15.40;99.90
24224;DHT22;12359;49.716;9.212;2022-07-06T03:20:28;15.40;99.90
24224;DHT22;12359;49.716;9.212;2022-07-06T03:22:53;15.40;99.90
24224;DHT22;12359;49.716;9.212;2022-07-06T03:25:19;15.40;99.90
24224;DHT22;12359;49.716;9.212;2022-07-06T03:27:45;15.30;99.90
24224;DHT22;12359;49.716;9.212;2022-07-06T03:30:11;15.30;99.90
24224;DHT22;12359;49.716;9.212;2022-07-06T03:32:36;15.30;99.90
24224;DHT22;12359;49.716;9.212;2022-07-06T03:35:02;15.20;99.90
24224;DHT22;12359;49.716;9.212;2022-07-06T03:37:28;15.20;99.90
24224;DHT22;12359;49.716;9.212;2022-07-06T03:39:54;15.20;99.90
24224;DHT22;12359;49.716;9.212;2022-07-06T03:42:19;15.10;99.90
24224;DHT22;12359;49.716;9.212;2022-07-06T03:44:45;15.10;99.90
24224;DHT22;12359;49.716;9.212;2022-07-06T03:47:11;15.20;99.90
24224;DHT22;12359;49.716;9.212;2022-07-06T03:49:36;15.20;99.90
24224;DHT22;12359;49.716;9.212;2022-07-06T03:52:02;15.20;99.90
24224;DHT22;12359;49.716;9.212;2022-07-06T03:54:28;15.20;99.90
24224;DHT22;12359;49.716;9.212;2022-07-06T03:56:53;15.20;99.90
24224;DHT22;12359;49.716;9.212;2022-07-06T03:59:19;15.20;99.90
24224;DHT22;12359;49.716;9.212;2022-07-06T04:01:45;15.20;99.90
24224;DHT22;12359;49.716;9.212;2022-07-06T04:04:10;15.20;99.90
24224;DHT22;12359;49.716;9.212;2022-07-06T04:06:36;15.20;99.90
24224;DHT22;12359;49.716;9.212;2022-07-06T04:09:02;15.30;99.90
24224;DHT22;12359;49.716;9.212;2022-07-06T04:11:28;15.30;99.90
24224;DHT22;12359;49.716;9.212;2022-07-06T04:13:53;15.40;99.90
24224;DHT22;12359;49.716;9.212;2022-07-06T04:16:20;15.40;99.90
24224;DHT22;12359;49.716;9.212;2022-07-06T04:18:45;15.60;99.90
24224;DHT22;12359;49.716;9.212;2022-07-06T04:21:11;15.60;99.90
24224;DHT22;12359;49.716;9.212;2022-07-06T04:23:37;15.70;99.90
24224;DHT22;12359;49.716;9.212;2022-07-06T04:26:02;15.80;99.90
24224;DHT22;12359;49.716;9.212;2022-07-06T04:28:28;16.00;99.90
24224;DHT22;12359;49.716;9.212;2022-07-06T04:30:54;16.10;99.90
24224;DHT22;12359;49.716;9.212;2022-07-06T04:33:20;16.20;99.90
24224;DHT22;12359;49.716;9.212;2022-07-06T04:35:46;16.30;99.90
24224;DHT22;12359;49.716;9.212;2022-07-06T04:38:11;16.40;99.90
24224;DHT22;12359;49.716;9.212;2022-07-06T04:40:37;16.40;99.90
24224;DHT22;12359;49.716;9.212;2022-07-06T04:43:03;16.50;99.90
24224;DHT22;12359;49.716;9.212;2022-07-06T04:45:28;16.60;99.90
24224;DHT22;12359;49.716;9.212;2022-07-06T04:47:54;16.70;99.90
24224;DHT22;12359;49.716;9.212;2022-07-06T04:50:20;16.80;99.90
24224;DHT22;12359;49.716;9.212;2022-07-06T04:52:45;16.80;99.90
24224;DHT22;12359;49.716;9.212;2022-07-06T04:55:11;16.80;99.90
24224;DHT22;12359;49.716;9.212;2022-07-06T04:57:39;16.90;99.90
24224;DHT22;12359;49.716;9.212;2022-07-06T05:00:05;16.90;99.90
24224;DHT22;12359;49.716;9.212;2022-07-06T05:02:31;17.10;99.90
24224;DHT22;12359;49.716;9.212;2022-07-06T05:04:57;17.30;99.90
24224;DHT22;12359;49.716;9.212;2022-07-06T05:07:22;17.40;99.90
24224;DHT22;12359;49.716;9.212;2022-07-06T05:09:48;17.60;99.90
24224;DHT22;12359;49.716;9.212;2022-07-06T05:12:14;17.70;99.90
24224;DHT22;12359;49.716;9.212;2022-07-06T05:14:39;17.90;99.90
24224;DHT22;12359;49.716;9.212;2022-07-06T05:17:05;18.00;99.90
24224;DHT22;12359;49.716;9.212;2022-07-06T05:19:31;18.10;99.90
24224;DHT22;12359;49.716;9.212;2022-07-06T05:21:56;18.20;99.90
24224;DHT22;12359;49.716;9.212;2022-07-06T05:24:22;18.30;99.90
24224;DHT22;12359;49.716;9.212;2022-07-06T05:26:48;18.30;99.90
24224;DHT22;12359;49.716;9.212;2022-07-06T05:29:13;18.50;99.90
24224;DHT22;12359;49.716;9.212;2022-07-06T05:31:39;18.70;99.90
24224;DHT22;12359;49.716;9.212;2022-07-06T05:34:04;18.80;99.90
24224;DHT22;12359;49.716;9.212;2022-07-06T05:36:30;19.00;99.90
24224;DHT22;12359;49.716;9.212;2022-07-06T05:38:56;19.10;99.90
24224;DHT22;12359;49.716;9.212;2022-07-06T05:41:21;19.20;99.90
24224;DHT22;12359;49.716;9.212;2022-07-06T05:43:47;19.20;99.90
24224;DHT22;12359;49.716;9.212;2022-07-06T05:46:13;19.20;99.90
24224;DHT22;12359;49.716;9.212;2022-07-06T05:48:38;19.20;99.90
24224;DHT22;12359;49.716;9.212;2022-07-06T05:51:23;19.30;99.90
24224;DHT22;12359;49.716;9.212;2022-07-06T05:53:48;19.50;99.90
24224;DHT22;12359;49.716;9.212;2022-07-06T05:56:14;19.50;99.90
24224;DHT22;12359;49.716;9.212;2022-07-06T05:58:40;19.50;99.90
24224;DHT22;12359;49.716;9.212;2022-07-06T06:01:05;19.50;99.90
24224;DHT22;12359;49.716;9.212;2022-07-06T06:03:33;19.60;99.90
24224;DHT22;12359;49.716;9.212;2022-07-06T06:05:59;19.70;99.90
24224;DHT22;12359;49.716;9.212;2022-07-06T06:08:25;19.70;99.90
24224;DHT22;12359;49.716;9.212;2022-07-06T06:10:52;19.70;99.90
24224;DHT22;12359;49.716;9.212;2022-07-06T06:13:18;19.50;99.90
24224;DHT22;12359;49.716;9.212;2022-07-06T06:15:43;19.30;99.90
24224;DHT22;12359;49.716;9.212;2022-07-06T06:18:09;19.40;99.90
24224;DHT22;12359;49.716;9.212;2022-07-06T06:20:35;19.60;99.90
24224;DHT22;12359;49.716;9.212;2022-07-06T06:23:01;19.70;99.90
24224;DHT22;12359;49.716;9.212;2022-07-06T06:27:57;20.00;99.90
24224;DHT22;12359;49.716;9.212;2022-07-06T06:30:23;20.20;99.30
24224;DHT22;12359;49.716;9.212;2022-07-06T06:32:49;20.50;98.60
24224;DHT22;12359;49.716;9.212;2022-07-06T06:35:15;20.80;97.40
24224;DHT22;12359;49.716;9.212;2022-07-06T06:37:41;21.20;96.00
24224;DHT22;12359;49.716;9.212;2022-07-06T06:40:08;21.50;94.30
24224;DHT22;12359;49.716;9.212;2022-07-06T06:42:37;21.70;93.40
24224;DHT22;12359;49.716;9.212;2022-07-06T06:45:04;21.80;91.70
24224;DHT22;12359;49.716;9.212;2022-07-06T06:47:30;22.10;91.10
24224;DHT22;12359;49.716;9.212;2022-07-06T06:49:55;22.90;87.90
24224;DHT22;12359;49.716;9.212;2022-07-06T06:52:21;23.60;80.90
24224;DHT22;12359;49.716;9.212;2022-07-06T06:54:47;24.10;73.80
24224;DHT22;12359;49.716;9.212;2022-07-06T06:57:12;24.40;70.30
24224;DHT22;12359;49.716;9.212;2022-07-06T06:59:38;24.50;69.30
24224;DHT22;12359;49.716;9.212;2022-07-06T07:02:03;24.70;67.00
24224;DHT22;12359;49.716;9.212;2022-07-06T07:04:29;24.60;66.00
24224;DHT22;12359;49.716;9.212;2022-07-06T07:06:56;24.90;63.60
24224;DHT22;12359;49.716;9.212;2022-07-06T07:09:22;25.10;63.50
24224;DHT22;12359;49.716;9.212;2022-07-06T07:11:47;25.10;60.60
24224;DHT22;12359;49.716;9.212;2022-07-06T07:14:13;25.10;61.40
24224;DHT22;12359;49.716;9.212;2022-07-06T07:16:39;25.30;60.80
24224;DHT22;12359;49.716;9.212;2022-07-06T07:19:04;25.60;59.80
24224;DHT22;12359;49.716;9.212;2022-07-06T07:21:30;25.50;58.90
24224;DHT22;12359;49.716;9.212;2022-07-06T07:23:56;25.70;58.40
24224;DHT22;12359;49.716;9.212;2022-07-06T07:26:21;25.70;58.40
24224;DHT22;12359;49.716;9.212;2022-07-06T07:28:47;25.80;58.30
24224;DHT22;12359;49.716;9.212;2022-07-06T07:31:12;26.00;57.40
24224;DHT22;12359;49.716;9.212;2022-07-06T07:33:38;26.40;56.40
24224;DHT22;12359;49.716;9.212;2022-07-06T07:36:04;26.60;56.40
24224;DHT22;12359;49.716;9.212;2022-07-06T07:38:30;26.70;55.80
24224;DHT22;12359;49.716;9.212;2022-07-06T07:40:56;26.40;54.00
24224;DHT22;12359;49.716;9.212;2022-07-06T07:43:21;26.50;54.50
24224;DHT22;12359;49.716;9.212;2022-07-06T07:45:48;26.60;54.50
24224;DHT22;12359;49.716;9.212;2022-07-06T07:48:13;26.40;54.60
24224;DHT22;12359;49.716;9.212;2022-07-06T07:50:40;26.50;53.80
24224;DHT22;12359;49.716;9.212;2022-07-06T07:53:06;26.60;53.30
24224;DHT22;12359;49.716;9.212;2022-07-06T07:55:33;26.50;53.60
24224;DHT22;12359;49.716;9.212;2022-07-06T07:57:58;26.60;53.80
24224;DHT22;12359;49.716;9.212;2022-07-06T08:00:24;26.60;54.10
24224;DHT22;12359;49.716;9.212;2022-07-06T08:02:50;26.60;53.50
24224;DHT22;12359;49.716;9.212;2022-07-06T08:05:16;26.50;53.30
24224;DHT22;12359;49.716;9.212;2022-07-06T08:07:43;26.30;53.00
24224;DHT22;12359;49.716;9.212;2022-07-06T08:10:09;26.60;53.70
24224;DHT22;12359;49.716;9.212;2022-07-06T08:12:35;26.40;53.50
24224;DHT22;12359;49.716;9.212;2022-07-06T08:15:01;26.40;53.90
24224;DHT22;12359;49.716;9.212;2022-07-06T08:17:27;26.10;54.10
24224;DHT22;12359;49.716;9.212;2022-07-06T08:19:53;26.00;53.70
24224;DHT22;12359;49.716;9.212;2022-07-06T08:22:19;25.60;54.70
24224;DHT22;12359;49.716;9.212;2022-07-06T08:24:44;25.60;54.90
24224;DHT22;12359;49.716;9.212;2022-07-06T08:27:10;25.60;54.90
24224;DHT22;12359;49.716;9.212;2022-07-06T08:29:36;25.60;55.50
24224;DHT22;12359;49.716;9.212;2022-07-06T08:32:01;25.60;54.80
24224;DHT22;12359;49.716;9.212;2022-07-06T08:34:27;26.00;54.20
24224;DHT22;12359;49.716;9.212;2022-07-06T08:36:53;26.20;53.40
24224;DHT22;12359;49.716;9.212;2022-07-06T08:39:19;25.80;53.90
24224;DHT22;12359;49.716;9.212;2022-07-06T08:41:45;25.90;54.20
24224;DHT22;12359;49.716;9.212;2022-07-06T08:44:14;25.90;54.20
24224;DHT22;12359;49.716;9.212;2022-07-06T08:46:40;26.20;53.20
24224;DHT22;12359;49.716;9.212;2022-07-06T08:49:07;25.90;53.40
24224;DHT22;12359;49.716;9.212;2022-07-06T08:51:35;25.80;54.20
24224;DHT22;12359;49.716;9.212;2022-07-06T08:54:02;25.90;54.70
24224;DHT22;12359;49.716;9.212;2022-07-06T08:56:29;25.40;54.60
24224;DHT22;12359;49.716;9.212;2022-07-06T08:58:54;25.70;53.90
24224;DHT22;12359;49.716;9.212;2022-07-06T09:01:21;25.90;54.90
24224;DHT22;12359;49.716;9.212;2022-07-06T09:03:49;26.30;53.70
24224;DHT22;12359;49.716;9.212;2022-07-06T09:06:26;25.90;53.90
24224;DHT22;12359;49.716;9.212;2022-07-06T09:08:56;26.00;53.90
24224;DHT22;12359;49.716;9.212;2022-07-06T09:11:23;26.00;54.30
24224;DHT22;12359;49.716;9.212;2022-07-06T09:13:51;26.30;53.50
24224;DHT22;12359;49.716;9.212;2022-07-06T09:16:17;26.30;53.30
24224;DHT22;12359;49.716;9.212;2022-07-06T09:18:46;26.80;52.80
24224;DHT22;12359;49.716;9.212;2022-07-06T09:21:25;27.40;52.60
24224;DHT22;12359;49.716;9.212;2022-07-06T09:23:58;27.50;51.50
24224;DHT22;12359;49.716;9.212;2022-07-06T09:26:25;27.00;51.60
24224;DHT22;12359;49.716;9.212;2022-07-06T09:28:51;26.40;51.70
24224;DHT22;12359;49.716;9.212;2022-07-06T09:31:17;25.80;52.50
24224;DHT22;12359;49.716;9.212;2022-07-06T09:34:05;25.80;53.50
24224;DHT22;12359;49.716;9.212;2022-07-06T09:39:20;26.40;52.80
24224;DHT22;12359;49.716;9.212;2022-07-06T09:41:51;26.70;52.70
24224;DHT22;12359;49.716;9.212;2022-07-06T09:44:52;27.20;52.10
24224;DHT22;12359;49.716;9.212;2022-07-06T09:47:18;26.40;51.50
24224;DHT22;12359;49.716;9.212;2022-07-06T09:49:46;26.00;53.00
24224;DHT22;12359;49.716;9.212;2022-07-06T09:52:13;25.20;53.50
24224;DHT22;12359;49.716;9.212;2022-07-06T09:54:40;24.80;54.10
24224;DHT22;12359;49.716;9.212;2022-07-06T09:57:06;24.80;54.70
24224;DHT22;12359;49.716;9.212;2022-07-06T09:59:34;25.70;54.30
24224;DHT22;12359;49.716;9.212;2022-07-06T10:02:09;26.30;53.50
24224;DHT22;12359;49.716;9.212;2022-07-06T10:04:36;26.90;53.70
24224;DHT22;12359;49.716;9.212;2022-07-06T10:07:01;26.90;53.00
24224;DHT22;12359;49.716;9.212;2022-07-06T10:09:29;26.70;51.60
24224;DHT22;12359;49.716;9.212;2022-07-06T10:11:57;26.30;52.70
24224;DHT22;12359;49.716;9.212;2022-07-06T10:14:27;26.10;52.90
24224;DHT22;12359;49.716;9.212;2022-07-06T10:16:56;25.70;52.50
24224;DHT22;12359;49.716;9.212;2022-07-06T10:19:23;25.60;53.80
24224;DHT22;12359;49.716;9.212;2022-07-06T10:21:49;26.10;53.80
24224;DHT22;12359;49.716;9.212;2022-07-06T10:24:19;26.50;52.50
24224;DHT22;12359;49.716;9.212;2022-07-06T10:26:45;27.00;50.10
24224;DHT22;12359;49.716;9.212;2022-07-06T10:29:11;27.10;49.80
24224;DHT22;12359;49.716;9.212;2022-07-06T10:31:40;26.30;49.80
24224;DHT22;12359;49.716;9.212;2022-07-06T10:34:09;25.80;50.60
24224;DHT22;12359;49.716;9.212;2022-07-06T10:36:43;25.90;50.90
24224;DHT22;12359;49.716;9.212;2022-07-06T10:39:10;26.70;51.40
24224;DHT22;12359;49.716;9.212;2022-07-06T10:41:55;27.40;51.20
24224;DHT22;12359;49.716;9.212;2022-07-06T10:44:23;28.00;50.20
24224;DHT22;12359;49.716;9.212;2022-07-06T10:46:56;27.50;49.80
24224;DHT22;12359;49.716;9.212;2022-07-06T10:49:23;27.10;50.30
24224;DHT22;12359;49.716;9.212;2022-07-06T10:51:50;26.50;51.20
24224;DHT22;12359;49.716;9.212;2022-07-06T10:54:17;25.60;50.90
24224;DHT22;12359;49.716;9.212;2022-07-06T10:56:47;25.10;51.70
24224;DHT22;12359;49.716;9.212;2022-07-06T10:59:17;25.90;52.10
24224;DHT22;12359;49.716;9.212;2022-07-06T11:04:37;26.30;50.50
24224;DHT22;12359;49.716;9.212;2022-07-06T11:07:08;25.80;49.60
24224;DHT22;12359;49.716;9.212;2022-07-06T11:09:35;25.70;50.90
24224;DHT22;12359;49.716;9.212;2022-07-06T11:12:21;26.30;50.90
24224;DHT22;12359;49.716;9.212;2022-07-06T11:14:48;27.00;50.20
24224;DHT22;12359;49.716;9.212;2022-07-06T11:17:14;27.60;48.70
24224;DHT22;12359;49.716;9.212;2022-07-06T11:19:56;27.90;48.10
24224;DHT22;12359;49.716;9.212;2022-07-06T11:22:22;28.30;47.70
24224;DHT22;12359;49.716;9.212;2022-07-06T11:24:50;28.50;48.10
24224;DHT22;12359;49.716;9.212;2022-07-06T11:27:17;28.70;47.50
24224;DHT22;12359;49.716;9.212;2022-07-06T11:29:43;28.20;47.10
24224;DHT22;12359;49.716;9.212;2022-07-06T11:32:11;27.80;47.70
24224;DHT22;12359;49.716;9.212;2022-07-06T11:34:46;28.00;48.60
24224;DHT22;12359;49.716;9.212;2022-07-06T11:37:13;28.40;47.60
24224;DHT22;12359;49.716;9.212;2022-07-06T11:39:44;28.50;47.30
24224;DHT22;12359;49.716;9.212;2022-07-06T11:42:11;28.40;47.30
24224;DHT22;12359;49.716;9.212;2022-07-06T11:44:38;28.40;47.90
24224;DHT22;12359;49.716;9.212;2022-07-06T11:47:05;27.70;47.60
24224;DHT22;12359;49.716;9.212;2022-07-06T11:49:32;27.30;47.50
24224;DHT22;12359;49.716;9.212;2022-07-06T11:52:00;26.60;48.30
24224;DHT22;12359;49.716;9.212;2022-07-06T11:54:26;26.60;48.70
24224;DHT22;12359;49.716;9.212;2022-07-06T11:56:57;26.40;48.50
24224;DHT22;12359;49.716;9.212;2022-07-06T11:59:34;26.30;48.60
24224;DHT22;12359;49.716;9.212;2022-07-06T12:02:10;26.70;48.90
24224;DHT22;12359;49.716;9.212;2022-07-06T12:04:39;26.90;46.90
24224;DHT22;12359;49.716;9.212;2022-07-06T12:07:12;27.20;46.10
24224;DHT22;12359;49.716;9.212;2022-07-06T12:09:40;27.50;46.50
24224;DHT22;12359;49.716;9.212;2022-07-06T12:12:08;27.50;46.80
24224;DHT22;12359;49.716;9.212;2022-07-06T12:14:39;27.70;47.00
24224;DHT22;12359;49.716;9.212;2022-07-06T12:17:12;27.80;46.80
24224;DHT22;12359;49.716;9.212;2022-07-06T12:19:39;28.20;46.90
24224;DHT22;12359;49.716;9.212;2022-07-06T12:22:07;28.70;47.30
24224;DHT22;12359;49.716;9.212;2022-07-06T12:24:37;28.70;45.80
24224;DHT22;12359;49.716;9.212;2022-07-06T12:27:18;28.70;45.70
24224;DHT22;12359;49.716;9.212;2022-07-06T12:29:45;28.70;46.30
24224;DHT22;12359;49.716;9.212;2022-07-06T12:32:21;28.30;45.30
24224;DHT22;12359;49.716;9.212;2022-07-06T12:35:01;28.30;45.40
24224;DHT22;12359;49.716;9.212;2022-07-06T12:37:27;28.50;45.50
24224;DHT22;12359;49.716;9.212;2022-07-06T12:39:52;28.70;45.00
24224;DHT22;12359;49.716;9.212;2022-07-06T12:42:18;28.70;45.20
24224;DHT22;12359;49.716;9.212;2022-07-06T12:44:50;28.70;45.60
24224;DHT22;12359;49.716;9.212;2022-07-06T12:47:22;28.40;45.10
24224;DHT22;12359;49.716;9.212;2022-07-06T12:50:03;28.00;45.70
24224;DHT22;12359;49.716;9.212;2022-07-06T12:52:30;28.20;45.20
24224;DHT22;12359;49.716;9.212;2022-07-06T12:54:55;28.20;45.20
24224;DHT22;12359;49.716;9.212;2022-07-06T12:57:25;28.30;44.90
24224;DHT22;12359;49.716;9.212;2022-07-06T13:02:27;28.60;44.70
24224;DHT22;12359;49.716;9.212;2022-07-06T13:07:26;28.40;43.00
24224;DHT22;12359;49.716;9.212;2022-07-06T13:09:53;28.20;43.40
24224;DHT22;12359;49.716;9.212;2022-07-06T13:12:20;27.80;43.40
24224;DHT22;12359;49.716;9.212;2022-07-06T13:14:46;27.60;44.60
24224;DHT22;12359;49.716;9.212;2022-07-06T13:17:12;27.70;44.40
24224;DHT22;12359;49.716;9.212;2022-07-06T13:19:38;27.80;44.40
24224;DHT22;12359;49.716;9.212;2022-07-06T13:22:04;27.70;43.90
24224;DHT22;12359;49.716;9.212;2022-07-06T13:24:30;27.60;43.40
24224;DHT22;12359;49.716;9.212;2022-07-06T13:26:56;27.90;43.20
24224;DHT22;12359;49.716;9.212;2022-07-06T13:29:23;27.70;43.10
24224;DHT22;12359;49.716;9.212;2022-07-06T13:31:49;27.70;43.70
24224;DHT22;12359;49.716;9.212;2022-07-06T13:34:14;27.80;43.50
24224;DHT22;12359;49.716;9.212;2022-07-06T13:36:40;27.90;44.10
24224;DHT22;12359;49.716;9.212;2022-07-06T13:39:07;28.00;43.30
24224;DHT22;12359;49.716;9.212;2022-07-06T13:41:33;27.90;43.50
24224;DHT22;12359;49.716;9.212;2022-07-06T13:44:00;27.80;44.00
24224;DHT22;12359;49.716;9.212;2022-07-06T13:46:29;27.60;44.10
24224;DHT22;12359;49.716;9.212;2022-07-06T13:48:56;27.50;43.50
24224;DHT22;12359;49.716;9.212;2022-07-06T13:51:23;27.40;43.80
24224;DHT22;12359;49.716;9.212;2022-07-06T13:53:50;27.40;44.40
24224;DHT22;12359;49.716;9.212;2022-07-06T13:56:17;27.40;42.80
24224;DHT22;12359;49.716;9.212;2022-07-06T13:58:43;27.40;43.20
24224;DHT22;12359;49.716;9.212;2022-07-06T14:01:09;27.30;44.00
24224;DHT22;12359;49.716;9.212;2022-07-06T14:03:35;27.30;44.20
24224;DHT22;12359;49.716;9.212;2022-07-06T14:06:03;27.20;43.90
24224;DHT22;12359;49.716;9.212;2022-07-06T14:08:30;27.30;43.60
24224;DHT22;12359;49.716;9.212;2022-07-06T14:10:56;27.30;43.60
24224;DHT22;12359;49.716;9.212;2022-07-06T14:13:22;27.20;43.60
24224;DHT22;12359;49.716;9.212;2022-07-06T14:15:48;27.20;43.90
24224;DHT22;12359;49.716;9.212;2022-07-06T14:18:14;27.30;43.90
24224;DHT22;12359;49.716;9.212;2022-07-06T14:20:40;27.30;43.80
24224;DHT22;12359;49.716;9.212;2022-07-06T14:23:06;26.90;43.70
24224;DHT22;12359;49.716;9.212;2022-07-06T14:25:32;26.90;43.90
24224;DHT22;12359;49.716;9.212;2022-07-06T14:27:58;26.90;43.50
24224;DHT22;12359;49.716;9.212;2022-07-06T14:30:25;26.50;43.40
24224;DHT22;12359;49.716;9.212;2022-07-06T14:32:51;26.30;44.10
24224;DHT22;12359;49.716;9.212;2022-07-06T14:35:16;26.40;43.80
24224;DHT22;12359;49.716;9.212;2022-07-06T14:37:42;26.30;43.30
24224;DHT22;12359;49.716;9.212;2022-07-06T14:40:08;26.40;43.20
24224;DHT22;12359;49.716;9.212;2022-07-06T14:42:34;26.50;43.70
24224;DHT22;12359;49.716;9.212;2022-07-06T14:45:00;26.60;42.30
24224;DHT22;12359;49.716;9.212;2022-07-06T14:47:26;26.40;42.40
24224;DHT22;12359;49.716;9.212;2022-07-06T14:49:52;26.20;42.00
24224;DHT22;12359;49.716;9.212;2022-07-06T14:52:18;26.20;42.30
24224;DHT22;12359;49.716;9.212;2022-07-06T14:54:44;26.20;42.60
24224;DHT22;12359;49.716;9.212;2022-07-06T14:57:10;26.20;42.30
24224;DHT22;12359;49.716;9.212;2022-07-06T14:59:35;26.30;42.10
24224;DHT22;12359;49.716;9.212;2022-07-06T15:02:02;26.30;42.10
24224;DHT22;12359;49.716;9.212;2022-07-06T15:04:28;26.40;42.00
24224;DHT22;12359;49.716;9.212;2022-07-06T15:06:53;26.30;41.60
24224;DHT22;12359;49.716;9.212;2022-07-06T15:09:19;26.20;42.10
24224;DHT22;12359;49.716;9.212;2022-07-06T15:11:45;26.20;42.40
24224;DHT22;12359;49.716;9.212;2022-07-06T15:14:11;26.20;42.50
24224;DHT22;12359;49.716;9.212;2022-07-06T15:16:38;26.20;41.30
24224;DHT22;12359;49.716;9.212;2022-07-06T15:19:04;26.10;42.10
24224;DHT22;12359;49.716;9.212;2022-07-06T15:21:30;26.00;42.50
24224;DHT22;12359;49.716;9.212;2022-07-06T15:23:56;26.00;42.70
24224;DHT22;12359;49.716;9.212;2022-07-06T15:26:22;26.00;42.10
24224;DHT22;12359;49.716;9.212;2022-07-06T15:28:50;25.90;42.30
24224;DHT22;12359;49.716;9.212;2022-07-06T15:31:16;25.90;42.40
24224;DHT22;12359;49.716;9.212;2022-07-06T15:33:41;25.80;42.80
24224;DHT22;12359;49.716;9.212;2022-07-06T15:36:07;25.70;43.80
24224;DHT22;12359;49.716;9.212;2022-07-06T15:38:33;25.80;43.70
24224;DHT22;12359;49.716;9.212;2022-07-06T15:41:00;25.70;43.70